sensor_id;sensor_type;location;lat;lon;timestamp;P1;durP1;ratioP1;P2;durP2;ratioP2
56537;SDS011;42435;53.292;6.000;2022-10-16T00:00:44;6.82;;;1.73;;
56537;SDS011;42435;53.292;6.000;2022-10-16T00:03:10;7.90;;;1.60;;
56537;SDS011;42435;53.292;6.000;2022-10-16T00:05:40;5.63;;;2.28;;
56537;SDS011;42435;53.292;6.000;2022-10-16T00:08:07;3.85;;;1.70;;
56537;SDS011;42435;53.292;6.000;2022-10-16T00:10:34;7.55;;;1.50;;
56537;SDS011;42435;53.292;6.000;2022-10-16T00:13:00;5.97;;;1.63;;
56537;SDS011;42435;53.292;6.000;2022-10-16T00:15:26;9.27;;;1.50;;
56537;SDS011;42435;53.292;6.000;2022-10-16T00:17:51;5.55;;;1.58;;
56537;SDS011;42435;53.292;6.000;2022-10-16T00:20:17;8.13;;;1.52;;
56537;SDS011;42435;53.292;6.000;2022-10-16T00:22:42;4.60;;;1.38;;
56537;SDS011;42435;53.292;6.000;2022-10-16T00:25:08;6.38;;;1.40;;
56537;SDS011;42435;53.292;6.000;2022-10-16T00:27:34;6.32;;;1.63;;
56537;SDS011;42435;53.292;6.000;2022-10-16T00:30:03;5.63;;;1.25;;
56537;SDS011;42435;53.292;6.000;2022-10-16T00:32:29;3.30;;;1.50;;
56537;SDS011;42435;53.292;6.000;2022-10-16T00:34:54;7.97;;;1.30;;
56537;SDS011;42435;53.292;6.000;2022-10-16T00:37:20;6.63;;;1.88;;
56537;SDS011;42435;53.292;6.000;2022-10-16T00:39:46;4.13;;;1.83;;
56537;SDS011;42435;53.292;6.000;2022-10-16T00:42:18;4.80;;;1.40;;
56537;SDS011;42435;53.292;6.000;2022-10-16T00:44:45;6.25;;;1.92;;
56537;SDS011;42435;53.292;6.000;2022-10-16T00:47:18;5.93;;;1.27;;
56537;SDS011;42435;53.292;6.000;2022-10-16T00:49:47;6.80;;;1.25;;
56537;SDS011;42435;53.292;6.000;2022-10-16T00:52:16;5.05;;;1.15;;
56537;SDS011;42435;53.292;6.000;2022-10-16T00:54:42;5.05;;;1.15;;
56537;SDS011;42435;53.292;6.000;2022-10-16T00:57:09;4.15;;;1.20;;
56537;SDS011;42435;53.292;6.000;2022-10-16T00:59:39;6.93;;;1.30;;
56537;SDS011;42435;53.292;6.000;2022-10-16T01:02:10;6.75;;;1.73;;
56537;SDS011;42435;53.292;6.000;2022-10-16T01:04:41;5.88;;;1.08;;
56537;SDS011;42435;53.292;6.000;2022-10-16T01:15:30;7.75;;;1.30;;
56537;SDS011;42435;53.292;6.000;2022-10-16T01:18:14;5.22;;;1.20;;
56537;SDS011;42435;53.292;6.000;2022-10-16T01:24:06;4.72;;;1.27;;
56537;SDS011;42435;53.292;6.000;2022-10-16T01:32:31;2.97;;;0.80;;
56537;SDS011;42435;53.292;6.000;2022-10-16T01:35:04;7.75;;;1.40;;
56537;SDS011;42435;53.292;6.000;2022-10-16T01:37:40;4.28;;;0.85;;
56537;SDS011;42435;53.292;6.000;2022-10-16T01:40:16;4.60;;;1.30;;
56537;SDS011;42435;53.292;6.000;2022-10-16T01:42:48;3.13;;;1.10;;
56537;SDS011;42435;53.292;6.000;2022-10-16T01:45:26;3.90;;;1.23;;
56537;SDS011;42435;53.292;6.000;2022-10-16T01:47:54;7.30;;;1.33;;
56537;SDS011;42435;53.292;6.000;2022-10-16T01:50:20;2.95;;;1.20;;
56537;SDS011;42435;53.292;6.000;2022-10-16T01:52:48;5.28;;;1.08;;
56537;SDS011;42435;53.292;6.000;2022-10-16T01:55:19;3.63;;;1.10;;
56537;SDS011;42435;53.292;6.000;2022-10-16T01:57:49;3.10;;;1.00;;
56537;SDS011;42435;53.292;6.000;2022-10-16T02:00:17;3.47;;;1.20;;
56537;SDS011;42435;53.292;6.000;2022-10-16T02:02:46;6.63;;;1.20;;
56537;SDS011;42435;53.292;6.000;2022-10-16T02:07:48;3.25;;;1.00;;
56537;SDS011;42435;53.292;6.000;2022-10-16T02:10:14;7.22;;;1.33;;
56537;SDS011;42435;53.292;6.000;2022-10-16T02:12:42;4.05;;;1.30;;
56537;SDS011;42435;53.292;6.000;2022-10-16T02:15:13;3.78;;;1.15;;
56537;SDS011;42435;53.292;6.000;2022-10-16T02:17:39;4.70;;;1.45;;
56537;SDS011;42435;53.292;6.000;2022-10-16T02:20:04;4.53;;;1.20;;
56537;SDS011;42435;53.292;6.000;2022-10-16T02:22:32;5.32;;;1.60;;
56537;SDS011;42435;53.292;6.000;2022-10-16T02:25:15;3.08;;;1.88;;
56537;SDS011;42435;53.292;6.000;2022-10-16T02:30:48;3.72;;;1.65;;
56537;SDS011;42435;53.292;6.000;2022-10-16T02:33:23;3.72;;;1.77;;
56537;SDS011;42435;53.292;6.000;2022-10-16T02:35:51;5.20;;;2.08;;
56537;SDS011;42435;53.292;6.000;2022-10-16T02:38:18;5.13;;;2.28;;
56537;SDS011;42435;53.292;6.000;2022-10-16T02:40:46;3.33;;;1.80;;
56537;SDS011;42435;53.292;6.000;2022-10-16T02:43:12;4.25;;;1.77;;
56537;SDS011;42435;53.292;6.000;2022-10-16T02:45:38;4.70;;;1.92;;
56537;SDS011;42435;53.292;6.000;2022-10-16T02:48:06;3.20;;;2.03;;
56537;SDS011;42435;53.292;6.000;2022-10-16T02:50:32;4.57;;;2.20;;
56537;SDS011;42435;53.292;6.000;2022-10-16T02:52:57;6.78;;;2.50;;
56537;SDS011;42435;53.292;6.000;2022-10-16T02:55:23;5.45;;;2.33;;
56537;SDS011;42435;53.292;6.000;2022-10-16T02:57:49;6.50;;;2.40;;
56537;SDS011;42435;53.292;6.000;2022-10-16T03:00:15;5.95;;;2.28;;
56537;SDS011;42435;53.292;6.000;2022-10-16T03:02:42;6.05;;;2.50;;
56537;SDS011;42435;53.292;6.000;2022-10-16T03:05:08;4.15;;;2.15;;
56537;SDS011;42435;53.292;6.000;2022-10-16T03:07:34;5.80;;;2.10;;
56537;SDS011;42435;53.292;6.000;2022-10-16T03:10:00;7.10;;;2.60;;
56537;SDS011;42435;53.292;6.000;2022-10-16T03:12:26;4.45;;;2.20;;
56537;SDS011;42435;53.292;6.000;2022-10-16T03:14:52;7.50;;;2.28;;
56537;SDS011;42435;53.292;6.000;2022-10-16T03:17:18;3.58;;;2.25;;
56537;SDS011;42435;53.292;6.000;2022-10-16T03:19:44;6.03;;;2.22;;
56537;SDS011;42435;53.292;6.000;2022-10-16T03:22:12;3.95;;;1.77;;
56537;SDS011;42435;53.292;6.000;2022-10-16T03:24:38;4.32;;;2.00;;
56537;SDS011;42435;53.292;6.000;2022-10-16T03:27:04;5.60;;;2.13;;
56537;SDS011;42435;53.292;6.000;2022-10-16T03:29:29;3.22;;;1.90;;
56537;SDS011;42435;53.292;6.000;2022-10-16T03:31:58;4.35;;;1.80;;
56537;SDS011;42435;53.292;6.000;2022-10-16T03:34:24;5.85;;;2.25;;
56537;SDS011;42435;53.292;6.000;2022-10-16T03:36:50;4.07;;;2.28;;
56537;SDS011;42435;53.292;6.000;2022-10-16T03:39:16;3.67;;;1.88;;
56537;SDS011;42435;53.292;6.000;2022-10-16T03:41:42;4.35;;;1.80;;
56537;SDS011;42435;53.292;6.000;2022-10-16T03:44:08;2.65;;;1.60;;
56537;SDS011;42435;53.292;6.000;2022-10-16T03:46:33;8.07;;;2.00;;
56537;SDS011;42435;53.292;6.000;2022-10-16T03:49:02;5.57;;;1.83;;
56537;SDS011;42435;53.292;6.000;2022-10-16T03:51:27;5.43;;;1.50;;
56537;SDS011;42435;53.292;6.000;2022-10-16T03:53:53;3.72;;;1.67;;
56537;SDS011;42435;53.292;6.000;2022-10-16T03:56:18;5.25;;;1.60;;
56537;SDS011;42435;53.292;6.000;2022-10-16T03:58:44;3.40;;;1.48;;
56537;SDS011;42435;53.292;6.000;2022-10-16T04:01:09;3.35;;;2.00;;
56537;SDS011;42435;53.292;6.000;2022-10-16T04:03:35;4.40;;;1.58;;
56537;SDS011;42435;53.292;6.000;2022-10-16T04:06:00;3.67;;;1.60;;
56537;SDS011;42435;53.292;6.000;2022-10-16T04:08:26;2.80;;;1.35;;
56537;SDS011;42435;53.292;6.000;2022-10-16T04:10:51;4.80;;;1.35;;
56537;SDS011;42435;53.292;6.000;2022-10-16T04:13:17;2.70;;;1.48;;
56537;SDS011;42435;53.292;6.000;2022-10-16T04:15:44;4.68;;;1.70;;
56537;SDS011;42435;53.292;6.000;2022-10-16T04:18:10;3.88;;;1.60;;
56537;SDS011;42435;53.292;6.000;2022-10-16T04:20:35;3.70;;;1.50;;
56537;SDS011;42435;53.292;6.000;2022-10-16T04:23:01;6.30;;;1.95;;
56537;SDS011;42435;53.292;6.000;2022-10-16T04:25:26;2.80;;;1.50;;
56537;SDS011;42435;53.292;6.000;2022-10-16T04:27:52;6.40;;;1.70;;
56537;SDS011;42435;53.292;6.000;2022-10-16T04:30:19;10.93;;;1.83;;
56537;SDS011;42435;53.292;6.000;2022-10-16T04:32:51;7.05;;;1.80;;
56537;SDS011;42435;53.292;6.000;2022-10-16T04:35:18;6.72;;;1.80;;
56537;SDS011;42435;53.292;6.000;2022-10-16T04:37:44;5.70;;;1.90;;
56537;SDS011;42435;53.292;6.000;2022-10-16T04:40:10;3.10;;;1.60;;
56537;SDS011;42435;53.292;6.000;2022-10-16T04:42:36;5.03;;;2.17;;
56537;SDS011;42435;53.292;6.000;2022-10-16T04:45:02;3.63;;;1.85;;
56537;SDS011;42435;53.292;6.000;2022-10-16T04:47:28;4.55;;;1.70;;
56537;SDS011;42435;53.292;6.000;2022-10-16T04:49:54;5.97;;;1.80;;
56537;SDS011;42435;53.292;6.000;2022-10-16T04:52:20;13.88;;;3.30;;
56537;SDS011;42435;53.292;6.000;2022-10-16T04:54:49;5.38;;;2.28;;
56537;SDS011;42435;53.292;6.000;2022-10-16T04:57:15;4.32;;;2.25;;
56537;SDS011;42435;53.292;6.000;2022-10-16T04:59:41;4.72;;;1.77;;
56537;SDS011;42435;53.292;6.000;2022-10-16T05:02:06;6.45;;;1.50;;
56537;SDS011;42435;53.292;6.000;2022-10-16T05:04:32;4.68;;;1.40;;
56537;SDS011;42435;53.292;6.000;2022-10-16T05:06:57;5.47;;;1.70;;
56537;SDS011;42435;53.292;6.000;2022-10-16T05:09:23;3.45;;;1.30;;
56537;SDS011;42435;53.292;6.000;2022-10-16T05:11:49;3.22;;;2.33;;
56537;SDS011;42435;53.292;6.000;2022-10-16T05:14:14;2.92;;;1.20;;
56537;SDS011;42435;53.292;6.000;2022-10-16T05:16:40;4.90;;;2.10;;
56537;SDS011;42435;53.292;6.000;2022-10-16T05:19:08;4.20;;;1.60;;
56537;SDS011;42435;53.292;6.000;2022-10-16T05:21:34;3.47;;;1.50;;
56537;SDS011;42435;53.292;6.000;2022-10-16T05:23:59;3.10;;;1.63;;
56537;SDS011;42435;53.292;6.000;2022-10-16T05:26:25;5.07;;;1.50;;
56537;SDS011;42435;53.292;6.000;2022-10-16T05:28:50;2.90;;;1.75;;
56537;SDS011;42435;53.292;6.000;2022-10-16T05:31:16;3.83;;;2.05;;
56537;SDS011;42435;53.292;6.000;2022-10-16T05:33:41;4.85;;;2.00;;
56537;SDS011;42435;53.292;6.000;2022-10-16T05:36:09;4.07;;;2.50;;
56537;SDS011;42435;53.292;6.000;2022-10-16T05:38:35;5.35;;;2.20;;
56537;SDS011;42435;53.292;6.000;2022-10-16T05:41:01;5.88;;;2.28;;
56537;SDS011;42435;53.292;6.000;2022-10-16T05:43:28;4.10;;;2.35;;
56537;SDS011;42435;53.292;6.000;2022-10-16T05:45:59;5.85;;;2.58;;
56537;SDS011;42435;53.292;6.000;2022-10-16T05:48:29;7.63;;;2.63;;
56537;SDS011;42435;53.292;6.000;2022-10-16T05:51:05;7.05;;;3.25;;
56537;SDS011;42435;53.292;6.000;2022-10-16T05:53:33;4.13;;;2.50;;
56537;SDS011;42435;53.292;6.000;2022-10-16T05:56:00;5.53;;;3.03;;
56537;SDS011;42435;53.292;6.000;2022-10-16T05:58:33;6.28;;;3.40;;
56537;SDS011;42435;53.292;6.000;2022-10-16T06:01:06;6.28;;;3.03;;
56537;SDS011;42435;53.292;6.000;2022-10-16T06:03:36;6.35;;;3.03;;
56537;SDS011;42435;53.292;6.000;2022-10-16T06:06:15;3.70;;;3.08;;
56537;SDS011;42435;53.292;6.000;2022-10-16T06:08:49;9.73;;;3.42;;
56537;SDS011;42435;53.292;6.000;2022-10-16T06:11:18;4.43;;;3.22;;
56537;SDS011;42435;53.292;6.000;2022-10-16T06:13:48;5.95;;;3.22;;
56537;SDS011;42435;53.292;6.000;2022-10-16T06:16:21;6.00;;;2.95;;
56537;SDS011;42435;53.292;6.000;2022-10-16T06:18:47;7.03;;;2.83;;
56537;SDS011;42435;53.292;6.000;2022-10-16T06:21:17;8.05;;;3.13;;
56537;SDS011;42435;53.292;6.000;2022-10-16T06:23:47;7.53;;;3.28;;
56537;SDS011;42435;53.292;6.000;2022-10-16T06:26:14;8.18;;;2.97;;
56537;SDS011;42435;53.292;6.000;2022-10-16T06:28:42;6.63;;;3.00;;
56537;SDS011;42435;53.292;6.000;2022-10-16T06:31:08;8.23;;;2.90;;
56537;SDS011;42435;53.292;6.000;2022-10-16T06:33:35;13.75;;;3.83;;
56537;SDS011;42435;53.292;6.000;2022-10-16T06:36:05;6.07;;;2.40;;
56537;SDS011;42435;53.292;6.000;2022-10-16T06:38:36;5.75;;;2.25;;
56537;SDS011;42435;53.292;6.000;2022-10-16T06:41:02;5.97;;;2.40;;
56537;SDS011;42435;53.292;6.000;2022-10-16T06:43:29;7.18;;;2.58;;
56537;SDS011;42435;53.292;6.000;2022-10-16T06:46:00;8.30;;;2.67;;
56537;SDS011;42435;53.292;6.000;2022-10-16T06:48:27;6.63;;;2.80;;
56537;SDS011;42435;53.292;6.000;2022-10-16T06:53:29;4.73;;;2.27;;
56537;SDS011;42435;53.292;6.000;2022-10-16T06:55:56;4.47;;;2.53;;
56537;SDS011;42435;53.292;6.000;2022-10-16T06:58:22;6.80;;;2.58;;
56537;SDS011;42435;53.292;6.000;2022-10-16T07:00:48;4.78;;;2.22;;
56537;SDS011;42435;53.292;6.000;2022-10-16T07:03:19;6.22;;;2.53;;
56537;SDS011;42435;53.292;6.000;2022-10-16T07:05:45;9.25;;;3.35;;
56537;SDS011;42435;53.292;6.000;2022-10-16T07:08:10;4.90;;;1.88;;
56537;SDS011;42435;53.292;6.000;2022-10-16T07:10:38;5.50;;;2.40;;
56537;SDS011;42435;53.292;6.000;2022-10-16T07:13:04;6.72;;;2.22;;
56537;SDS011;42435;53.292;6.000;2022-10-16T07:15:32;6.78;;;2.25;;
56537;SDS011;42435;53.292;6.000;2022-10-16T07:17:58;4.70;;;2.13;;
56537;SDS011;42435;53.292;6.000;2022-10-16T07:20:23;4.85;;;2.30;;
56537;SDS011;42435;53.292;6.000;2022-10-16T07:22:49;5.53;;;1.90;;
56537;SDS011;42435;53.292;6.000;2022-10-16T07:25:14;5.95;;;2.80;;
56537;SDS011;42435;53.292;6.000;2022-10-16T07:27:43;4.82;;;2.00;;
56537;SDS011;42435;53.292;6.000;2022-10-16T07:30:08;3.42;;;2.10;;
56537;SDS011;42435;53.292;6.000;2022-10-16T07:32:34;6.30;;;2.40;;
56537;SDS011;42435;53.292;6.000;2022-10-16T07:35:03;6.45;;;2.60;;
56537;SDS011;42435;53.292;6.000;2022-10-16T07:37:29;5.80;;;2.05;;
56537;SDS011;42435;53.292;6.000;2022-10-16T07:39:58;3.55;;;2.10;;
56537;SDS011;42435;53.292;6.000;2022-10-16T07:42:23;6.63;;;2.17;;
56537;SDS011;42435;53.292;6.000;2022-10-16T07:45:05;6.53;;;2.22;;
56537;SDS011;42435;53.292;6.000;2022-10-16T07:47:31;5.85;;;2.65;;
56537;SDS011;42435;53.292;6.000;2022-10-16T07:49:56;6.03;;;2.75;;
56537;SDS011;42435;53.292;6.000;2022-10-16T07:52:25;7.53;;;3.05;;
56537;SDS011;42435;53.292;6.000;2022-10-16T07:54:50;7.53;;;3.35;;
56537;SDS011;42435;53.292;6.000;2022-10-16T07:57:16;6.75;;;3.65;;
56537;SDS011;42435;53.292;6.000;2022-10-16T07:59:44;5.13;;;3.20;;
56537;SDS011;42435;53.292;6.000;2022-10-16T08:02:11;6.18;;;3.50;;
56537;SDS011;42435;53.292;6.000;2022-10-16T08:04:37;5.85;;;3.92;;
56537;SDS011;42435;53.292;6.000;2022-10-16T08:07:02;5.47;;;4.30;;
56537;SDS011;42435;53.292;6.000;2022-10-16T08:09:28;6.28;;;3.50;;
56537;SDS011;42435;53.292;6.000;2022-10-16T08:11:54;6.72;;;3.92;;
56537;SDS011;42435;53.292;6.000;2022-10-16T08:14:20;5.13;;;3.65;;
56537;SDS011;42435;53.292;6.000;2022-10-16T08:16:45;5.53;;;3.33;;
56537;SDS011;42435;53.292;6.000;2022-10-16T08:19:11;8.23;;;3.55;;
56537;SDS011;42435;53.292;6.000;2022-10-16T08:21:36;4.20;;;2.58;;
56537;SDS011;42435;53.292;6.000;2022-10-16T08:24:02;5.90;;;2.85;;
56537;SDS011;42435;53.292;6.000;2022-10-16T08:26:28;6.57;;;3.10;;
56537;SDS011;42435;53.292;6.000;2022-10-16T08:28:53;8.73;;;3.08;;
56537;SDS011;42435;53.292;6.000;2022-10-16T08:31:20;4.35;;;2.30;;
56537;SDS011;42435;53.292;6.000;2022-10-16T08:33:46;8.90;;;2.85;;
56537;SDS011;42435;53.292;6.000;2022-10-16T08:36:12;4.97;;;3.47;;
56537;SDS011;42435;53.292;6.000;2022-10-16T08:38:39;7.53;;;2.38;;
56537;SDS011;42435;53.292;6.000;2022-10-16T08:41:13;6.72;;;2.38;;
56537;SDS011;42435;53.292;6.000;2022-10-16T08:44:02;5.57;;;2.38;;
56537;SDS011;42435;53.292;6.000;2022-10-16T08:46:59;4.85;;;2.33;;
56537;SDS011;42435;53.292;6.000;2022-10-16T08:49:56;7.47;;;2.50;;
56537;SDS011;42435;53.292;6.000;2022-10-16T08:52:25;11.13;;;3.00;;
56537;SDS011;42435;53.292;6.000;2022-10-16T08:54:57;4.95;;;2.40;;
56537;SDS011;42435;53.292;6.000;2022-10-16T08:57:24;7.85;;;2.40;;
56537;SDS011;42435;53.292;6.000;2022-10-16T08:59:59;7.63;;;2.90;;
56537;SDS011;42435;53.292;6.000;2022-10-16T09:08:14;4.70;;;2.75;;
56537;SDS011;42435;53.292;6.000;2022-10-16T09:21:45;8.20;;;2.30;;
56537;SDS011;42435;53.292;6.000;2022-10-16T09:26:39;10.10;;;2.55;;
56537;SDS011;42435;53.292;6.000;2022-10-16T09:29:05;10.00;;;2.20;;
56537;SDS011;42435;53.292;6.000;2022-10-16T09:31:31;6.93;;;2.67;;
56537;SDS011;42435;53.292;6.000;2022-10-16T09:34:00;8.15;;;1.98;;
56537;SDS011;42435;53.292;6.000;2022-10-16T09:36:33;8.70;;;2.60;;
56537;SDS011;42435;53.292;6.000;2022-10-16T09:39:10;8.32;;;2.55;;
56537;SDS011;42435;53.292;6.000;2022-10-16T09:41:37;7.80;;;2.10;;
56537;SDS011;42435;53.292;6.000;2022-10-16T09:44:17;9.90;;;2.22;;
56537;SDS011;42435;53.292;6.000;2022-10-16T09:46:46;10.98;;;2.67;;
56537;SDS011;42435;53.292;6.000;2022-10-16T09:49:25;9.63;;;2.70;;
56537;SDS011;42435;53.292;6.000;2022-10-16T09:52:02;7.38;;;1.83;;
56537;SDS011;42435;53.292;6.000;2022-10-16T09:54:29;7.20;;;2.33;;
56537;SDS011;42435;53.292;6.000;2022-10-16T09:57:16;14.00;;;2.80;;
56537;SDS011;42435;53.292;6.000;2022-10-16T09:59:57;10.63;;;2.10;;
56537;SDS011;42435;53.292;6.000;2022-10-16T10:02:28;9.80;;;2.10;;
56537;SDS011;42435;53.292;6.000;2022-10-16T10:04:55;7.57;;;2.05;;
56537;SDS011;42435;53.292;6.000;2022-10-16T10:07:25;9.68;;;2.88;;
56537;SDS011;42435;53.292;6.000;2022-10-16T10:09:53;8.63;;;2.97;;
56537;SDS011;42435;53.292;6.000;2022-10-16T10:12:28;8.02;;;2.53;;
56537;SDS011;42435;53.292;6.000;2022-10-16T10:17:32;8.45;;;3.42;;
56537;SDS011;42435;53.292;6.000;2022-10-16T10:20:00;12.93;;;2.70;;
56537;SDS011;42435;53.292;6.000;2022-10-16T10:22:47;9.70;;;2.75;;
56537;SDS011;42435;53.292;6.000;2022-10-16T10:30:36;10.52;;;2.17;;
56537;SDS011;42435;53.292;6.000;2022-10-16T10:36:14;13.50;;;2.40;;
56537;SDS011;42435;53.292;6.000;2022-10-16T10:38:51;13.25;;;2.70;;
56537;SDS011;42435;53.292;6.000;2022-10-16T10:44:07;17.33;;;3.17;;
56537;SDS011;42435;53.292;6.000;2022-10-16T10:46:45;12.93;;;2.85;;
56537;SDS011;42435;53.292;6.000;2022-10-16T11:00:06;9.30;;;2.40;;
56537;SDS011;42435;53.292;6.000;2022-10-16T11:02:48;16.67;;;2.50;;
56537;SDS011;42435;53.292;6.000;2022-10-16T11:05:38;17.17;;;2.70;;
56537;SDS011;42435;53.292;6.000;2022-10-16T11:08:48;12.70;;;2.70;;
56537;SDS011;42435;53.292;6.000;2022-10-16T11:21:43;9.00;;;1.80;;
56537;SDS011;42435;53.292;6.000;2022-10-16T11:24:41;10.20;;;2.42;;
56537;SDS011;42435;53.292;6.000;2022-10-16T11:27:12;14.15;;;2.60;;
56537;SDS011;42435;53.292;6.000;2022-10-16T11:29:56;12.02;;;2.13;;
56537;SDS011;42435;53.292;6.000;2022-10-16T11:32:31;9.27;;;2.10;;
56537;SDS011;42435;53.292;6.000;2022-10-16T11:35:02;9.75;;;2.20;;
56537;SDS011;42435;53.292;6.000;2022-10-16T11:37:57;10.38;;;1.50;;
56537;SDS011;42435;53.292;6.000;2022-10-16T11:40:30;9.35;;;2.83;;
56537;SDS011;42435;53.292;6.000;2022-10-16T11:43:10;8.40;;;1.83;;
56537;SDS011;42435;53.292;6.000;2022-10-16T11:46:00;9.48;;;3.42;;
56537;SDS011;42435;53.292;6.000;2022-10-16T11:48:41;8.07;;;2.00;;
56537;SDS011;42435;53.292;6.000;2022-10-16T11:54:08;9.27;;;1.73;;
56537;SDS011;42435;53.292;6.000;2022-10-16T11:56:40;11.73;;;2.10;;
56537;SDS011;42435;53.292;6.000;2022-10-16T12:07:36;13.02;;;3.28;;
56537;SDS011;42435;53.292;6.000;2022-10-16T12:10:22;8.93;;;2.10;;
56537;SDS011;42435;53.292;6.000;2022-10-16T12:12:50;12.88;;;2.20;;
56537;SDS011;42435;53.292;6.000;2022-10-16T12:17:45;9.13;;;1.63;;
56537;SDS011;42435;53.292;6.000;2022-10-16T12:22:37;9.00;;;2.25;;
56537;SDS011;42435;53.292;6.000;2022-10-16T12:25:53;10.95;;;2.30;;
56537;SDS011;42435;53.292;6.000;2022-10-16T12:30:43;9.77;;;1.70;;
56537;SDS011;42435;53.292;6.000;2022-10-16T12:35:50;6.55;;;1.65;;
56537;SDS011;42435;53.292;6.000;2022-10-16T12:38:26;9.05;;;1.75;;
56537;SDS011;42435;53.292;6.000;2022-10-16T12:40:59;9.43;;;1.60;;
56537;SDS011;42435;53.292;6.000;2022-10-16T12:43:37;7.25;;;1.38;;
56537;SDS011;42435;53.292;6.000;2022-10-16T12:48:40;11.18;;;1.58;;
56537;SDS011;42435;53.292;6.000;2022-10-16T12:54:00;8.18;;;2.28;;
56537;SDS011;42435;53.292;6.000;2022-10-16T13:08:18;7.00;;;1.60;;
56537;SDS011;42435;53.292;6.000;2022-10-16T13:11:05;6.57;;;1.83;;
56537;SDS011;42435;53.292;6.000;2022-10-16T13:16:21;8.60;;;1.80;;
56537;SDS011;42435;53.292;6.000;2022-10-16T13:21:32;13.63;;;2.42;;
56537;SDS011;42435;53.292;6.000;2022-10-16T13:24:15;9.13;;;1.92;;
56537;SDS011;42435;53.292;6.000;2022-10-16T13:29:19;10.63;;;2.83;;
56537;SDS011;42435;53.292;6.000;2022-10-16T13:31:45;8.30;;;1.60;;
56537;SDS011;42435;53.292;6.000;2022-10-16T13:34:16;5.35;;;1.40;;
56537;SDS011;42435;53.292;6.000;2022-10-16T13:36:50;9.27;;;1.67;;
56537;SDS011;42435;53.292;6.000;2022-10-16T13:39:24;11.25;;;1.65;;
56537;SDS011;42435;53.292;6.000;2022-10-16T13:44:39;11.18;;;1.70;;
56537;SDS011;42435;53.292;6.000;2022-10-16T13:47:29;10.32;;;1.80;;
56537;SDS011;42435;53.292;6.000;2022-10-16T13:50:01;10.55;;;2.95;;
56537;SDS011;42435;53.292;6.000;2022-10-16T13:52:35;9.20;;;2.05;;
56537;SDS011;42435;53.292;6.000;2022-10-16T13:55:03;12.35;;;2.42;;
56537;SDS011;42435;53.292;6.000;2022-10-16T13:57:29;8.07;;;1.80;;
56537;SDS011;42435;53.292;6.000;2022-10-16T13:59:55;9.85;;;1.98;;
56537;SDS011;42435;53.292;6.000;2022-10-16T14:04:46;11.80;;;3.42;;
56537;SDS011;42435;53.292;6.000;2022-10-16T14:07:14;15.20;;;2.92;;
56537;SDS011;42435;53.292;6.000;2022-10-16T14:09:47;9.77;;;2.05;;
56537;SDS011;42435;53.292;6.000;2022-10-16T14:12:14;8.65;;;1.70;;
56537;SDS011;42435;53.292;6.000;2022-10-16T14:14:45;8.07;;;1.98;;
56537;SDS011;42435;53.292;6.000;2022-10-16T14:17:18;10.40;;;2.17;;
56537;SDS011;42435;53.292;6.000;2022-10-16T14:19:48;9.73;;;2.50;;
56537;SDS011;42435;53.292;6.000;2022-10-16T14:22:22;8.20;;;1.90;;
56537;SDS011;42435;53.292;6.000;2022-10-16T14:24:52;12.05;;;4.13;;
56537;SDS011;42435;53.292;6.000;2022-10-16T14:27:24;10.50;;;2.28;;
56537;SDS011;42435;53.292;6.000;2022-10-16T14:30:10;10.52;;;2.00;;
56537;SDS011;42435;53.292;6.000;2022-10-16T14:32:39;7.30;;;1.42;;
56537;SDS011;42435;53.292;6.000;2022-10-16T14:35:23;8.32;;;1.55;;
56537;SDS011;42435;53.292;6.000;2022-10-16T14:37:52;8.63;;;1.90;;
56537;SDS011;42435;53.292;6.000;2022-10-16T14:40:20;9.65;;;1.33;;
56537;SDS011;42435;53.292;6.000;2022-10-16T14:42:48;7.78;;;1.67;;
56537;SDS011;42435;53.292;6.000;2022-10-16T14:45:15;9.55;;;1.65;;
56537;SDS011;42435;53.292;6.000;2022-10-16T14:47:49;6.93;;;1.42;;
56537;SDS011;42435;53.292;6.000;2022-10-16T14:50:18;6.68;;;1.75;;
56537;SDS011;42435;53.292;6.000;2022-10-16T14:52:44;9.88;;;1.88;;
56537;SDS011;42435;53.292;6.000;2022-10-16T14:55:12;7.47;;;1.73;;
56537;SDS011;42435;53.292;6.000;2022-10-16T14:57:38;8.80;;;1.60;;
56537;SDS011;42435;53.292;6.000;2022-10-16T15:00:09;8.45;;;1.83;;
56537;SDS011;42435;53.292;6.000;2022-10-16T15:02:47;10.15;;;2.05;;
56537;SDS011;42435;53.292;6.000;2022-10-16T15:05:15;8.73;;;1.75;;
56537;SDS011;42435;53.292;6.000;2022-10-16T15:07:43;10.82;;;1.95;;
56537;SDS011;42435;53.292;6.000;2022-10-16T15:10:10;6.07;;;1.48;;
56537;SDS011;42435;53.292;6.000;2022-10-16T15:12:37;7.50;;;2.00;;
56537;SDS011;42435;53.292;6.000;2022-10-16T15:15:48;11.65;;;2.47;;
56537;SDS011;42435;53.292;6.000;2022-10-16T15:17:49;10.70;;;1.98;;
56537;SDS011;42435;53.292;6.000;2022-10-16T15:20:20;9.10;;;2.47;;
56537;SDS011;42435;53.292;6.000;2022-10-16T15:22:46;11.68;;;3.55;;
56537;SDS011;42435;53.292;6.000;2022-10-16T15:25:24;10.35;;;2.92;;
56537;SDS011;42435;53.292;6.000;2022-10-16T15:28:04;8.02;;;2.20;;
56537;SDS011;42435;53.292;6.000;2022-10-16T15:30:30;8.35;;;2.00;;
56537;SDS011;42435;53.292;6.000;2022-10-16T15:32:56;9.82;;;2.40;;
56537;SDS011;42435;53.292;6.000;2022-10-16T15:35:22;11.13;;;2.42;;
56537;SDS011;42435;53.292;6.000;2022-10-16T15:37:48;8.43;;;2.33;;
56537;SDS011;42435;53.292;6.000;2022-10-16T15:40:14;14.38;;;2.28;;
56537;SDS011;42435;53.292;6.000;2022-10-16T15:42:40;12.15;;;2.00;;
56537;SDS011;42435;53.292;6.000;2022-10-16T15:45:06;12.18;;;2.53;;
56537;SDS011;42435;53.292;6.000;2022-10-16T15:47:33;9.48;;;2.65;;
56537;SDS011;42435;53.292;6.000;2022-10-16T15:49:59;9.00;;;2.83;;
56537;SDS011;42435;53.292;6.000;2022-10-16T15:52:27;8.05;;;2.05;;
56537;SDS011;42435;53.292;6.000;2022-10-16T15:54:55;14.23;;;3.72;;
56537;SDS011;42435;53.292;6.000;2022-10-16T15:57:21;11.18;;;1.90;;
56537;SDS011;42435;53.292;6.000;2022-10-16T15:59:46;14.27;;;2.30;;
56537;SDS011;42435;53.292;6.000;2022-10-16T16:02:12;7.40;;;2.28;;
56537;SDS011;42435;53.292;6.000;2022-10-16T16:04:37;12.02;;;3.45;;
56537;SDS011;42435;53.292;6.000;2022-10-16T16:07:03;14.90;;;4.07;;
56537;SDS011;42435;53.292;6.000;2022-10-16T16:09:32;8.27;;;2.38;;
56537;SDS011;42435;53.292;6.000;2022-10-16T16:11:58;10.43;;;2.42;;
56537;SDS011;42435;53.292;6.000;2022-10-16T16:14:25;12.38;;;2.78;;
56537;SDS011;42435;53.292;6.000;2022-10-16T16:16:53;13.68;;;3.28;;
56537;SDS011;42435;53.292;6.000;2022-10-16T16:19:19;12.30;;;3.00;;
56537;SDS011;42435;53.292;6.000;2022-10-16T16:21:46;12.95;;;4.05;;
56537;SDS011;42435;53.292;6.000;2022-10-16T16:24:12;8.40;;;3.50;;
56537;SDS011;42435;53.292;6.000;2022-10-16T16:26:41;7.22;;;2.38;;
56537;SDS011;42435;53.292;6.000;2022-10-16T16:29:12;9.60;;;3.20;;
56537;SDS011;42435;53.292;6.000;2022-10-16T16:31:40;5.63;;;2.45;;
56537;SDS011;42435;53.292;6.000;2022-10-16T16:34:06;12.82;;;2.83;;
56537;SDS011;42435;53.292;6.000;2022-10-16T16:36:32;4.35;;;1.63;;
56537;SDS011;42435;53.292;6.000;2022-10-16T16:38:58;7.80;;;1.70;;
56537;SDS011;42435;53.292;6.000;2022-10-16T16:41:25;8.75;;;2.50;;
56537;SDS011;42435;53.292;6.000;2022-10-16T16:43:53;8.95;;;3.22;;
56537;SDS011;42435;53.292;6.000;2022-10-16T16:46:19;12.68;;;3.35;;
56537;SDS011;42435;53.292;6.000;2022-10-16T16:48:46;11.95;;;2.20;;
56537;SDS011;42435;53.292;6.000;2022-10-16T16:51:15;9.77;;;3.05;;
56537;SDS011;42435;53.292;6.000;2022-10-16T16:53:46;8.13;;;1.77;;
56537;SDS011;42435;53.292;6.000;2022-10-16T16:56:16;10.80;;;2.60;;
56537;SDS011;42435;53.292;6.000;2022-10-16T16:58:50;15.93;;;2.83;;
56537;SDS011;42435;53.292;6.000;2022-10-16T17:01:17;8.95;;;2.53;;
56537;SDS011;42435;53.292;6.000;2022-10-16T17:03:46;11.30;;;2.58;;
56537;SDS011;42435;53.292;6.000;2022-10-16T17:06:17;15.10;;;3.85;;
56537;SDS011;42435;53.292;6.000;2022-10-16T17:08:44;12.90;;;4.55;;
56537;SDS011;42435;53.292;6.000;2022-10-16T17:11:14;12.93;;;5.25;;